Kezdőlap
METAR-TAF:

METAR-TAF

Repülőterek :

Taylorville Municipal Airport

Taylorville, Illinois, Amerikai Egyesült Államok

földrajzi szélesség: 39-32-03N, földrajzi hosszúság: 089-19-40W, magasság: 190 m

Jelenlegi meteorológiai megfigyelések

A jelentés 28 perccel ezelõtt készült, 07:35 UTC
Nyugat-északnyugati szél 10 kt széllökések: 15 kt
Hőmérséklet 8°C
Páratartalom 100%
Légköri nyomás 1013 hPa
Látótávolság: 2.4 km
Borult 300 lábon
Párásság

METAR: KTAZ 180735Z AUTO 29010G15KT 1 1/2SM BR OVC003 08/08 A2992 RMK AO2 T00750075

Idő: 02:03 (08:03 UTC)


TAF: hiányzik

Meteorológiai megfigyelések és előrejelzések több, mint 4000 repülőtéren (METAR és TAF jelentéseket).

A térképen piros és sárga pontok jelzik az elérhető meteorológiai állomásokat.

Mozgassa az egeret a pont fölött, hogy megjelenjen az állomás neve.

Azután kattintson az időjárási megfigyelések és előrejelzések megtekintéséhez.

A térkép megváltoztatása: kattintson a fekete keresztel jelölt zöld gombra ráközelítéshez, a vonallal jelölt zöld gombra távolításhoz, vagy a zöld nyilakra a szomszédos térképek eléréséhez.


METAR-TAF: